Impacts TAF Board INFO
FOR SITUATIONAL AWARENESS. NOT TO BE USED FOR FLIGHT PLANNING PURPOSES.
IDs:

KCVG - Cincinnati Intl, KY, US

Issued at 1139 UTC 22 Feb 2018
Updated at 1424 UTC 22 Feb 2018
Potential Impact None Slight Moderate High
Time<<23/03Z 23/04Z 23/05Z 23/06Z 23/07Z 23/08Z 23/09Z 23/10Z 23/11Z 23/12Z 23/13Z 23/14Z 23/15Z>>
Type PRVL PRVL PRVL PRVL PRVL PRVL PRVL PRVL PRVL PRVL PRVL PRVL PRVL
VIS 5 5 5 5 4 4 4 4 4 4 5 5 5
CIG 7 7 7 7 5 5 5 5 5 5 8 8 8
Cover OVC OVC OVC OVC OVC OVC OVC OVC OVC OVC OVC OVC OVC
FltCat IFR IFR IFR IFR IFR IFR IFR IFR IFR IFR IFR IFR IFR
WX BR BR BR BR -SHRA BR -SHRA BR -SHRA BR -SHRA BR -SHRA BR -SHRA BR -SHRA BR -SHRA BR -SHRA BR
WDir 90 90 90 90 130 130 130 130 130 130 190 190 190
WSpd 7 7 7 7 8 8 8 8 8 8 10 10 10
WGst -- -- -- -- -- -- -- -- -- -- -- -- --

Raw TAF
KCVG 221139Z 2212/2318 05015KT 4SM -RA BR BKN007 OVC035
  FM221300 05012KT P6SM SCT007 OVC040
  FM221600 05008KT P6SM BKN012 OVC070
  FM230100 09007KT 5SM BR OVC007
  FM230700 13008KT 4SM -SHRA BR OVC005
  FM231300 19010KT 5SM -SHRA BR BKN008 OVC030


METAR Board
Radar Display
Forecast Discussion

FOR SITUATIONAL AWARENESS. NOT TO BE USED FOR FLIGHT PLANNING PURPOSES.